createdAt,value
2023-02-27T00:00:14.893Z,-2.10
2023-02-27T00:02:43.525Z,-2.10
2023-02-27T00:05:11.802Z,-2.20
2023-02-27T00:07:38.782Z,-2.20
2023-02-27T00:10:06.878Z,-2.20
2023-02-27T00:12:39.927Z,-2.20
2023-02-27T00:15:12.762Z,-2.20
2023-02-27T00:17:39.694Z,-2.20
2023-02-27T00:20:08.135Z,-2.20
2023-02-27T00:22:34.880Z,-2.30
2023-02-27T00:25:01.709Z,-2.30
2023-02-27T00:27:28.523Z,-2.30
2023-02-27T00:29:55.409Z,-2.30
2023-02-27T00:32:22.224Z,-2.30
2023-02-27T00:34:48.936Z,-2.20
2023-02-27T00:37:15.870Z,-2.30
2023-02-27T00:39:42.693Z,-2.20
2023-02-27T00:42:09.600Z,-2.20
2023-02-27T00:44:36.259Z,-2.20
2023-02-27T00:47:03.160Z,-2.20
2023-02-27T00:49:29.867Z,-2.20
2023-02-27T00:51:56.591Z,-2.20
2023-02-27T00:54:23.330Z,-2.20
2023-02-27T00:56:50.097Z,-2.20
2023-02-27T00:59:16.762Z,-2.10
2023-02-27T01:01:44.530Z,-2.10
2023-02-27T01:04:11.768Z,-2.10
2023-02-27T01:06:38.454Z,-2.10
2023-02-27T01:09:05.443Z,-2.10
2023-02-27T01:11:32.224Z,-2.10
2023-02-27T01:13:58.991Z,-2.10
2023-02-27T01:16:26.913Z,-2.00
2023-02-27T01:18:53.661Z,-2.00
2023-02-27T01:21:20.450Z,-2.00
2023-02-27T01:23:47.140Z,-2.00
2023-02-27T01:26:13.822Z,-2.00
2023-02-27T01:28:40.538Z,-2.00
2023-02-27T01:31:07.637Z,-2.00
2023-02-27T01:33:34.301Z,-2.00
2023-02-27T01:36:01.383Z,-2.00
2023-02-27T01:38:28.093Z,-2.00
2023-02-27T01:40:54.946Z,-2.00
2023-02-27T01:43:22.364Z,-2.00
2023-02-27T01:45:49.599Z,-2.00
2023-02-27T01:48:32.294Z,-2.00
2023-02-27T01:51:07.256Z,-2.00
2023-02-27T01:53:36.849Z,-2.00
2023-02-27T01:56:12.504Z,-2.00
2023-02-27T01:58:39.640Z,-1.90
2023-02-27T02:01:07.032Z,-2.00
2023-02-27T02:03:44.042Z,-2.00
2023-02-27T02:06:12.415Z,-2.00
2023-02-27T02:08:43.921Z,-2.00
2023-02-27T02:11:10.839Z,-2.00
2023-02-27T02:13:39.316Z,-2.10
2023-02-27T02:16:43.772Z,-2.10
2023-02-27T02:19:54.611Z,-2.10
2023-02-27T02:23:12.091Z,-2.10
2023-02-27T02:26:20.270Z,-2.10
2023-02-27T02:29:11.121Z,-2.10
2023-02-27T02:32:06.709Z,-2.10
2023-02-27T02:34:57.878Z,-2.10
2023-02-27T02:37:43.439Z,-2.10
2023-02-27T02:40:28.443Z,-2.20
2023-02-27T02:43:13.593Z,-2.20
2023-02-27T02:45:58.600Z,-2.20
2023-02-27T02:48:33.148Z,-2.30
2023-02-27T02:51:24.966Z,-2.30
2023-02-27T02:54:14.606Z,-2.30
2023-02-27T02:56:47.415Z,-2.30
2023-02-27T02:59:45.507Z,-2.30
2023-02-27T03:02:17.084Z,-2.30
2023-02-27T03:04:51.058Z,-2.30
2023-02-27T03:07:28.551Z,-2.30
2023-02-27T03:10:05.198Z,-2.30
2023-02-27T03:12:33.848Z,-2.30
2023-02-27T03:15:13.764Z,-2.30
2023-02-27T03:17:47.317Z,-2.30
2023-02-27T03:20:29.533Z,-2.30
2023-02-27T03:23:00.035Z,-2.30
2023-02-27T03:25:28.678Z,-2.30
2023-02-27T03:28:00.026Z,-2.30
2023-02-27T03:30:38.498Z,-2.30
2023-02-27T03:33:37.979Z,-2.30
2023-02-27T03:36:07.765Z,-2.30
2023-02-27T03:39:00.861Z,-2.30
2023-02-27T03:41:40.850Z,-2.30
2023-02-27T03:44:22.705Z,-2.30
2023-02-27T03:46:49.359Z,-2.30
2023-02-27T03:49:16.086Z,-2.30
2023-02-27T03:51:43.062Z,-2.30
2023-02-27T03:54:14.962Z,-2.30
2023-02-27T03:56:47.454Z,-2.20
2023-02-27T03:59:14.934Z,-2.20
2023-02-27T04:01:43.415Z,-2.20
2023-02-27T04:04:12.785Z,-2.20
2023-02-27T04:07:04.579Z,-2.20
2023-02-27T04:10:16.369Z,-2.20
2023-02-27T04:12:51.515Z,-2.20
2023-02-27T04:15:25.642Z,-2.20
2023-02-27T04:18:18.896Z,-2.20
2023-02-27T04:20:58.707Z,-2.20
2023-02-27T04:23:39.772Z,-2.20
2023-02-27T04:26:06.391Z,-2.20
2023-02-27T04:28:44.659Z,-2.20
2023-02-27T04:31:14.368Z,-2.20
2023-02-27T04:34:01.305Z,-2.20
2023-02-27T04:36:49.345Z,-2.20
2023-02-27T04:39:27.508Z,-2.30
2023-02-27T04:42:06.875Z,-2.20
2023-02-27T04:44:36.326Z,-2.20
2023-02-27T04:47:05.957Z,-2.20
2023-02-27T04:49:42.623Z,-2.30
2023-02-27T04:52:36.419Z,-2.30
2023-02-27T04:55:06.073Z,-2.30
2023-02-27T04:57:48.817Z,-2.30
2023-02-27T05:00:18.745Z,-2.30
2023-02-27T05:02:52.271Z,-2.30
2023-02-27T05:05:29.998Z,-2.30
2023-02-27T05:08:04.275Z,-2.30
2023-02-27T05:10:42.947Z,-2.40
2023-02-27T05:13:21.008Z,-2.40
2023-02-27T05:16:03.991Z,-2.40
2023-02-27T05:18:31.050Z,-2.50
2023-02-27T05:21:19.263Z,-2.50
2023-02-27T05:24:23.604Z,-2.50
2023-02-27T05:27:18.518Z,-2.50
2023-02-27T05:30:04.022Z,-2.50
2023-02-27T05:32:44.102Z,-2.50
2023-02-27T05:35:24.214Z,-2.60
2023-02-27T05:38:09.551Z,-2.60
2023-02-27T05:40:41.872Z,-2.50
2023-02-27T05:43:18.921Z,-2.50
2023-02-27T05:45:50.144Z,-2.50
2023-02-27T05:48:34.578Z,-2.60
2023-02-27T05:51:03.541Z,-2.60
2023-02-27T05:53:35.199Z,-2.60
2023-02-27T05:56:05.120Z,-2.60
2023-02-27T05:58:52.457Z,-2.60
2023-02-27T06:01:19.119Z,-2.60
2023-02-27T06:03:46.257Z,-2.60
2023-02-27T06:06:16.379Z,-2.60
2023-02-27T06:08:43.725Z,-2.60
2023-02-27T06:11:10.521Z,-2.60
2023-02-27T06:13:37.221Z,-2.60
2023-02-27T06:16:04.116Z,-2.60
2023-02-27T06:18:30.816Z,-2.60
2023-02-27T06:20:57.460Z,-2.60
2023-02-27T06:23:24.106Z,-2.60
2023-02-27T06:25:50.813Z,-2.60
2023-02-27T06:28:17.505Z,-2.50
2023-02-27T06:30:46.302Z,-2.50
2023-02-27T06:33:13.341Z,-2.50
2023-02-27T06:35:40.023Z,-2.50
2023-02-27T06:38:06.711Z,-2.40
2023-02-27T06:40:33.341Z,-2.40
2023-02-27T06:42:59.958Z,-2.30
2023-02-27T06:45:26.641Z,-2.30
2023-02-27T06:47:53.431Z,-2.30
2023-02-27T06:50:20.186Z,-2.30
2023-02-27T06:52:46.970Z,-2.20
2023-02-27T06:55:19.818Z,-2.10
2023-02-27T06:57:49.971Z,-2.20
2023-02-27T07:00:17.702Z,-2.20
2023-02-27T07:02:44.362Z,-2.10
2023-02-27T07:05:12.109Z,-2.10
2023-02-27T07:07:39.379Z,-2.10
2023-02-27T07:10:12.450Z,-2.00
2023-02-27T07:12:40.379Z,-2.00
2023-02-27T07:15:08.302Z,-2.00
2023-02-27T07:17:35.025Z,-1.90
2023-02-27T07:20:01.671Z,-1.90
2023-02-27T07:22:28.314Z,-1.80
2023-02-27T07:24:54.926Z,-1.70
2023-02-27T07:27:21.618Z,-1.70
2023-02-27T07:29:48.262Z,-1.70
2023-02-27T07:32:14.968Z,-1.70
2023-02-27T07:34:41.640Z,-1.60
2023-02-27T07:37:08.311Z,-1.60
2023-02-27T07:39:35.029Z,-1.50
2023-02-27T07:42:01.779Z,-1.40
2023-02-27T07:44:28.432Z,-1.40
2023-02-27T07:46:55.071Z,-1.40
2023-02-27T07:49:21.818Z,-1.40
2023-02-27T07:51:48.576Z,-1.40
2023-02-27T07:54:15.446Z,-1.30
2023-02-27T07:56:42.207Z,-1.20
2023-02-27T07:59:08.948Z,-1.20
2023-02-27T08:01:35.650Z,-1.30
2023-02-27T08:04:02.300Z,-1.20
2023-02-27T08:06:29.972Z,-1.10
2023-02-27T08:08:56.773Z,-1.20
2023-02-27T08:11:23.768Z,-1.10
2023-02-27T08:14:05.885Z,-1.00
2023-02-27T08:16:33.275Z,-1.00
2023-02-27T08:19:00.685Z,-1.00
2023-02-27T08:21:27.943Z,-0.90
2023-02-27T08:23:54.868Z,-0.80
2023-02-27T08:26:21.720Z,-0.80
2023-02-27T08:28:48.551Z,-0.70
2023-02-27T08:31:15.247Z,-0.70
2023-02-27T08:33:41.932Z,-0.60
2023-02-27T08:36:10.098Z,-0.60
2023-02-27T08:38:36.944Z,-0.60
2023-02-27T08:41:04.425Z,-0.60
2023-02-27T08:43:31.358Z,-0.60
2023-02-27T08:45:58.246Z,-0.50
2023-02-27T08:48:25.279Z,-0.40
2023-02-27T08:50:52.592Z,-0.50
2023-02-27T08:53:19.466Z,-0.50
2023-02-27T08:55:50.827Z,-0.50
2023-02-27T08:58:18.444Z,-0.40
2023-02-27T09:00:45.489Z,-0.30
2023-02-27T09:03:12.549Z,-0.40
2023-02-27T09:05:39.406Z,-0.40
2023-02-27T09:08:07.091Z,-0.30
2023-02-27T09:10:34.254Z,-0.30
2023-02-27T09:13:01.622Z,-0.60
2023-02-27T09:15:29.217Z,-0.60
2023-02-27T09:18:00.095Z,-0.70
2023-02-27T09:20:26.832Z,-0.90
2023-02-27T09:22:53.651Z,-0.90
2023-02-27T09:25:20.312Z,-1.10
2023-02-27T09:27:47.085Z,-1.20
2023-02-27T09:30:13.979Z,-1.30
2023-02-27T09:32:40.654Z,-1.10
2023-02-27T09:35:09.332Z,-1.00
2023-02-27T09:37:36.454Z,-1.00
2023-02-27T09:40:05.525Z,-1.00
2023-02-27T09:42:45.302Z,-0.90
2023-02-27T09:45:28.112Z,-0.80
2023-02-27T09:47:59.983Z,-0.60
2023-02-27T09:50:44.790Z,-0.40
2023-02-27T09:53:21.793Z,-0.30
2023-02-27T09:55:49.642Z,-0.40
2023-02-27T09:58:26.394Z,-0.10
2023-02-27T10:01:21.769Z,-0.10
2023-02-27T10:04:08.844Z,0.00
2023-02-27T10:06:44.873Z,0.10
2023-02-27T10:09:34.985Z,0.20
2023-02-27T10:12:14.165Z,0.40
2023-02-27T10:14:46.845Z,0.40
2023-02-27T10:17:24.541Z,0.60
2023-02-27T10:19:53.255Z,0.60
2023-02-27T10:22:29.122Z,0.40
2023-02-27T10:25:18.062Z,0.30
2023-02-27T10:27:56.882Z,0.40
2023-02-27T10:30:34.686Z,0.30
2023-02-27T10:33:35.486Z,0.50
2023-02-27T10:36:03.520Z,0.50
2023-02-27T10:38:34.767Z,0.60
2023-02-27T10:41:03.273Z,0.60
2023-02-27T10:43:30.029Z,0.60
2023-02-27T10:46:00.701Z,0.60
2023-02-27T10:48:27.472Z,0.40
2023-02-27T10:51:19.585Z,0.50
2023-02-27T10:53:46.345Z,0.60
2023-02-27T10:56:27.956Z,0.70
2023-02-27T10:59:07.314Z,0.70
2023-02-27T11:01:46.967Z,0.80
2023-02-27T11:04:14.540Z,0.80
2023-02-27T11:06:42.306Z,0.60
2023-02-27T11:09:20.924Z,0.50
2023-02-27T11:11:48.178Z,0.40
2023-02-27T11:14:29.995Z,0.10
2023-02-27T11:16:59.514Z,0.10
2023-02-27T11:19:33.377Z,0.20
2023-02-27T11:22:27.952Z,0.30
2023-02-27T11:25:19.549Z,0.30
2023-02-27T11:27:46.864Z,0.30
2023-02-27T11:30:32.043Z,0.30
2023-02-27T11:33:01.372Z,0.20
2023-02-27T11:35:37.059Z,0.30
2023-02-27T11:38:16.821Z,0.10
2023-02-27T11:40:51.920Z,0.20
2023-02-27T11:43:39.940Z,0.30
2023-02-27T11:46:43.610Z,0.30
2023-02-27T11:49:03.040Z,0.20
2023-02-27T11:51:35.614Z,0.00
2023-02-27T11:54:12.871Z,0.10
2023-02-27T11:57:22.190Z,0.10
2023-02-27T12:00:20.907Z,0.10
2023-02-27T12:03:23.983Z,-0.10
2023-02-27T12:05:56.078Z,0.10
2023-02-27T12:08:43.969Z,0.10
2023-02-27T12:11:22.478Z,0.30
2023-02-27T12:14:04.526Z,0.40
2023-02-27T12:16:59.133Z,0.40
2023-02-27T12:19:41.802Z,0.30
2023-02-27T12:22:32.361Z,0.20
2023-02-27T12:25:19.324Z,0.30
2023-02-27T12:27:59.633Z,0.20
2023-02-27T12:30:29.375Z,0.10
2023-02-27T12:33:09.486Z,0.10
2023-02-27T12:35:36.108Z,0.30
2023-02-27T12:38:04.462Z,0.30
2023-02-27T12:40:48.127Z,0.30
2023-02-27T12:43:22.583Z,0.30
2023-02-27T12:46:15.756Z,0.30
2023-02-27T12:49:03.636Z,0.30
2023-02-27T12:51:57.577Z,0.40
2023-02-27T12:54:40.826Z,0.20
2023-02-27T12:57:41.037Z,0.30
2023-02-27T13:00:15.031Z,0.40
2023-02-27T13:03:08.679Z,0.20
2023-02-27T13:05:51.682Z,-0.10
2023-02-27T13:08:21.807Z,-0.10
2023-02-27T13:10:54.257Z,0.00
2023-02-27T13:13:40.117Z,0.10
2023-02-27T13:16:29.167Z,0.00
2023-02-27T13:19:15.479Z,0.10
2023-02-27T13:21:59.612Z,0.10
2023-02-27T13:24:31.136Z,-0.10
2023-02-27T13:27:03.641Z,-0.40
2023-02-27T13:29:41.230Z,-0.10
2023-02-27T13:32:41.368Z,0.00
2023-02-27T13:35:28.276Z,-0.30
2023-02-27T13:37:57.967Z,-0.10
2023-02-27T13:40:39.502Z,0.10
2023-02-27T13:43:30.352Z,-0.10
2023-02-27T13:46:17.310Z,-0.10
2023-02-27T13:48:46.326Z,0.10
2023-02-27T13:51:34.963Z,0.20
2023-02-27T13:54:13.944Z,0.30
2023-02-27T13:56:50.495Z,0.40
2023-02-27T13:59:29.963Z,0.40
2023-02-27T14:02:02.796Z,0.30
2023-02-27T14:04:32.973Z,0.10
2023-02-27T14:07:07.086Z,0.10
2023-02-27T14:09:38.515Z,0.20
2023-02-27T14:12:08.105Z,0.00
2023-02-27T14:14:47.872Z,0.10
2023-02-27T14:17:37.160Z,0.40
2023-02-27T14:20:29.880Z,0.40
2023-02-27T14:23:15.359Z,0.50
2023-02-27T14:25:51.704Z,0.30
2023-02-27T14:28:32.293Z,0.50
2023-02-27T14:31:03.067Z,0.40
2023-02-27T14:33:53.976Z,0.30
2023-02-27T14:36:29.516Z,0.10
2023-02-27T14:39:00.884Z,0.20
2023-02-27T14:41:48.132Z,0.00
2023-02-27T14:44:27.923Z,0.20
2023-02-27T14:47:02.708Z,0.30
2023-02-27T14:49:31.939Z,0.20
2023-02-27T14:52:12.415Z,0.20
2023-02-27T14:54:39.101Z,0.10
2023-02-27T14:57:07.580Z,0.20
2023-02-27T14:59:43.967Z,0.40
2023-02-27T15:02:33.544Z,0.40
2023-02-27T15:05:03.262Z,0.50
2023-02-27T15:07:33.071Z,0.70
2023-02-27T15:10:05.922Z,0.90
2023-02-27T15:12:38.053Z,0.90
2023-02-27T15:15:10.491Z,0.90
2023-02-27T15:17:42.005Z,0.80
2023-02-27T15:20:30.110Z,0.60
2023-02-27T15:23:02.551Z,0.40
2023-02-27T15:25:34.941Z,0.30
2023-02-27T15:28:07.858Z,0.30
2023-02-27T15:30:34.788Z,0.30
2023-02-27T15:33:02.814Z,0.30
2023-02-27T15:35:41.907Z,-0.10
2023-02-27T15:38:24.729Z,-0.40
2023-02-27T15:40:51.721Z,-0.30
2023-02-27T15:43:19.165Z,-0.20
2023-02-27T15:45:46.366Z,-0.30
2023-02-27T15:48:15.452Z,-0.30
2023-02-27T15:50:48.205Z,-0.40
2023-02-27T15:53:19.815Z,-0.30
2023-02-27T15:55:51.329Z,-0.30
2023-02-27T15:58:25.457Z,-0.30
2023-02-27T16:01:13.837Z,-0.40
2023-02-27T16:03:45.050Z,-0.50
2023-02-27T16:06:17.114Z,-0.60
2023-02-27T16:08:55.223Z,-0.60
2023-02-27T16:11:31.031Z,-0.60
2023-02-27T16:13:58.146Z,-0.60
2023-02-27T16:16:34.950Z,-0.60
2023-02-27T16:19:30.365Z,-0.60
2023-02-27T16:22:15.146Z,-0.60
2023-02-27T16:24:42.747Z,-0.70
2023-02-27T16:27:23.582Z,-0.70
2023-02-27T16:29:51.019Z,-0.70
2023-02-27T16:32:30.436Z,-0.70
2023-02-27T16:35:15.405Z,-0.80
2023-02-27T16:37:43.409Z,-0.80
2023-02-27T16:40:19.200Z,-0.90
2023-02-27T16:42:46.625Z,-0.90
2023-02-27T16:45:22.644Z,-1.00
2023-02-27T16:47:51.696Z,-1.00
2023-02-27T16:50:41.602Z,-1.10
2023-02-27T16:53:08.892Z,-1.10
2023-02-27T16:55:39.564Z,-1.10
2023-02-27T16:58:06.703Z,-1.10
2023-02-27T17:00:36.247Z,-1.20
2023-02-27T17:03:03.003Z,-1.20
2023-02-27T17:05:29.729Z,-1.20
2023-02-27T17:07:56.374Z,-1.20
2023-02-27T17:10:24.612Z,-1.20
2023-02-27T17:12:52.209Z,-1.30
2023-02-27T17:15:19.646Z,-1.30
2023-02-27T17:17:46.290Z,-1.30
2023-02-27T17:20:14.271Z,-1.30
2023-02-27T17:22:43.996Z,-1.40
2023-02-27T17:25:11.943Z,-1.50
2023-02-27T17:27:38.834Z,-1.50
2023-02-27T17:30:06.718Z,-1.50
2023-02-27T17:32:34.541Z,-1.50
2023-02-27T17:35:01.708Z,-1.50
2023-02-27T17:37:28.518Z,-1.60
2023-02-27T17:39:55.397Z,-1.60
2023-02-27T17:42:25.461Z,-1.60
2023-02-27T17:44:52.196Z,-1.60
2023-02-27T17:47:19.211Z,-1.60
2023-02-27T17:49:45.945Z,-1.60
2023-02-27T17:52:12.629Z,-1.60
2023-02-27T17:54:52.019Z,-1.70
2023-02-27T17:57:19.031Z,-1.70
2023-02-27T17:59:45.671Z,-1.70
2023-02-27T18:02:13.622Z,-1.60
2023-02-27T18:04:40.555Z,-1.60
2023-02-27T18:07:07.264Z,-1.70
2023-02-27T18:09:33.893Z,-1.70
2023-02-27T18:12:00.568Z,-1.70
2023-02-27T18:14:27.252Z,-1.80
2023-02-27T18:16:53.967Z,-1.70
2023-02-27T18:19:20.777Z,-1.80
2023-02-27T18:21:47.430Z,-1.80
2023-02-27T18:24:16.185Z,-1.80
2023-02-27T18:26:43.582Z,-1.90
2023-02-27T18:29:11.917Z,-1.80
2023-02-27T18:31:43.223Z,-1.80
2023-02-27T18:34:11.096Z,-1.80
2023-02-27T18:36:38.426Z,-1.80
2023-02-27T18:39:06.106Z,-1.90
2023-02-27T18:41:33.326Z,-1.90
2023-02-27T18:44:00.119Z,-1.90
2023-02-27T18:46:27.936Z,-1.90
2023-02-27T18:48:55.144Z,-2.00
2023-02-27T18:51:22.056Z,-2.00
2023-02-27T18:53:50.197Z,-2.00
2023-02-27T18:56:19.944Z,-2.00
2023-02-27T18:58:47.043Z,-2.00
2023-02-27T19:01:24.473Z,-2.00
2023-02-27T19:03:53.235Z,-2.00
2023-02-27T19:06:20.053Z,-2.00
2023-02-27T19:08:46.977Z,-2.10
2023-02-27T19:11:24.908Z,-2.10
2023-02-27T19:13:51.884Z,-2.10
2023-02-27T19:16:18.725Z,-2.10
2023-02-27T19:18:45.563Z,-2.10
2023-02-27T19:21:12.312Z,-2.10
2023-02-27T19:23:39.105Z,-2.10
2023-02-27T19:26:05.894Z,-2.10
2023-02-27T19:28:33.735Z,-2.10
2023-02-27T19:31:05.788Z,-2.10
2023-02-27T19:33:32.433Z,-2.10
2023-02-27T19:35:59.733Z,-2.00
2023-02-27T19:38:26.448Z,-2.00
2023-02-27T19:40:53.101Z,-2.00
2023-02-27T19:43:19.720Z,-2.00
2023-02-27T19:45:46.390Z,-2.00
2023-02-27T19:48:15.092Z,-2.10
2023-02-27T19:50:41.736Z,-2.10
2023-02-27T19:53:08.405Z,-2.00
2023-02-27T19:55:35.044Z,-2.00
2023-02-27T19:58:01.699Z,-2.10
2023-02-27T20:00:29.435Z,-2.10
2023-02-27T20:02:56.760Z,-2.10
2023-02-27T20:05:24.631Z,-2.00
2023-02-27T20:07:52.859Z,-2.10
2023-02-27T20:10:19.586Z,-2.00
2023-02-27T20:12:46.197Z,-2.10
2023-02-27T20:15:12.954Z,-2.10
2023-02-27T20:17:41.887Z,-2.10
2023-02-27T20:20:09.529Z,-2.10
2023-02-27T20:22:36.915Z,-2.10
2023-02-27T20:25:03.660Z,-2.20
2023-02-27T20:27:30.357Z,-2.20
2023-02-27T20:29:57.502Z,-2.10
2023-02-27T20:32:24.944Z,-2.10
2023-02-27T20:34:53.646Z,-2.20
2023-02-27T20:37:21.512Z,-2.20
2023-02-27T20:39:49.387Z,-2.20
2023-02-27T20:42:16.250Z,-2.20
2023-02-27T20:44:42.967Z,-2.20
2023-02-27T20:47:09.747Z,-2.30
2023-02-27T20:49:36.837Z,-2.20
2023-02-27T20:52:03.753Z,-2.20
2023-02-27T20:54:30.474Z,-2.20
2023-02-27T20:56:57.253Z,-2.20
2023-02-27T20:59:25.486Z,-2.20
2023-02-27T21:01:53.174Z,-2.20
2023-02-27T21:04:26.284Z,-2.20
2023-02-27T21:06:54.627Z,-2.20
2023-02-27T21:09:22.232Z,-2.20
2023-02-27T21:11:48.916Z,-2.20
2023-02-27T21:14:15.547Z,-2.20
2023-02-27T21:16:42.237Z,-2.20
2023-02-27T21:19:09.004Z,-2.20
2023-02-27T21:21:36.975Z,-2.20
2023-02-27T21:24:05.529Z,-2.20
2023-02-27T21:26:38.222Z,-2.20
2023-02-27T21:29:08.919Z,-2.20
2023-02-27T21:31:37.169Z,-2.20
2023-02-27T21:34:06.916Z,-2.10
2023-02-27T21:36:42.107Z,-2.20
2023-02-27T21:39:12.626Z,-2.20
2023-02-27T21:41:39.459Z,-2.20
2023-02-27T21:44:07.992Z,-2.20
2023-02-27T21:46:35.440Z,-2.20
2023-02-27T21:49:02.244Z,-2.20
2023-02-27T21:51:39.976Z,-2.30
2023-02-27T21:54:10.291Z,-2.30
2023-02-27T21:56:37.000Z,-2.30
2023-02-27T21:59:04.268Z,-2.30
2023-02-27T22:01:31.670Z,-2.30
2023-02-27T22:03:58.636Z,-2.30
2023-02-27T22:06:27.738Z,-2.30
2023-02-27T22:08:58.776Z,-2.40
2023-02-27T22:11:27.224Z,-2.40
2023-02-27T22:13:54.255Z,-2.40
2023-02-27T22:16:21.737Z,-2.40
2023-02-27T22:18:48.939Z,-2.50
2023-02-27T22:21:18.809Z,-2.50
2023-02-27T22:23:46.524Z,-2.50
2023-02-27T22:26:15.958Z,-2.50
2023-02-27T22:28:42.894Z,-2.50
2023-02-27T22:31:15.760Z,-2.50
2023-02-27T22:33:46.768Z,-2.50
2023-02-27T22:36:20.142Z,-2.50
2023-02-27T22:38:48.054Z,-2.60
2023-02-27T22:41:17.759Z,-2.60
2023-02-27T22:43:45.287Z,-2.60
2023-02-27T22:46:14.463Z,-2.60
2023-02-27T22:48:41.132Z,-2.60
2023-02-27T22:51:12.615Z,-2.60
2023-02-27T22:53:40.517Z,-2.60
2023-02-27T22:56:10.022Z,-2.60
2023-02-27T22:58:38.974Z,-2.60
2023-02-27T23:01:14.639Z,-2.60
2023-02-27T23:03:42.150Z,-2.60
2023-02-27T23:06:11.377Z,-2.70
2023-02-27T23:08:38.586Z,-2.70
2023-02-27T23:11:05.438Z,-2.70
2023-02-27T23:13:32.268Z,-2.80
2023-02-27T23:16:00.037Z,-2.80
2023-02-27T23:18:27.496Z,-2.80
2023-02-27T23:20:54.625Z,-2.80
2023-02-27T23:23:22.877Z,-2.90
2023-02-27T23:25:49.573Z,-2.90
2023-02-27T23:28:16.317Z,-2.90
2023-02-27T23:30:43.087Z,-2.90
2023-02-27T23:33:09.713Z,-2.90
2023-02-27T23:35:36.620Z,-2.90
2023-02-27T23:38:03.368Z,-2.90
2023-02-27T23:40:30.104Z,-2.90
2023-02-27T23:42:56.824Z,-3.00
2023-02-27T23:45:23.523Z,-2.90
2023-02-27T23:47:55.703Z,-2.90
2023-02-27T23:50:31.815Z,-3.00
2023-02-27T23:52:59.964Z,-3.00
2023-02-27T23:55:30.212Z,-3.00
2023-02-27T23:57:58.913Z,-3.00
